Time;durP1;ratioP1;P1;durP2;ratioP2;P2;SDS_P1;SDS_P2;PMS_P1;PMS_P2;Temp;Humidity;BMP_temperature;BMP_pressure;BME280_temperature;BME280_humidity;BME280_pressure;Samples;Min_cycle;Max_cycle;Signal;HPM_P1;HPM_P2
2021/10/11 00:01:01;;;;;;;5.47;4.97;;;;;;;21.19;67.68;98333.66;4979398;28;20231;-63
2021/10/11 00:03:28;;;;;;;5.67;5.10;;;;;;;21.18;67.42;98329.34;4987527;28;20337;-65
2021/10/11 00:05:55;;;;;;;5.50;5.00;;;;;;;21.16;67.10;98336.06;4983787;28;20250;-66
2021/10/11 00:08:21;;;;;;;5.50;4.97;;;;;;;20.74;67.18;98254.97;4960443;28;20629;-64
2021/10/11 00:10:57;;;;;;;7.20;5.40;;;;;;;21.19;67.43;98343.00;4983939;28;20291;-64
2021/10/11 00:13:23;;;;;;;5.93;5.33;;;;;;;21.19;67.09;98341.31;4978153;28;20234;-63
2021/10/11 00:15:50;;;;;;;5.63;5.10;;;;;;;21.19;67.58;98333.66;4979546;28;20215;-63
2021/10/11 00:18:18;;;;;;;5.90;5.30;;;;;;;21.17;67.33;98327.59;4970764;28;20524;-63
2021/10/11 00:20:45;;;;;;;5.97;5.37;;;;;;;21.19;67.40;98328.53;4979723;28;20673;-64
2021/10/11 00:23:11;;;;;;;5.60;5.10;;;;;;;21.20;67.24;98326.88;4945673;28;20311;-65
2021/10/11 00:25:38;;;;;;;5.60;5.10;;;;;;;21.20;67.51;98332.84;4981480;28;20254;-65
2021/10/11 00:28:04;;;;;;;5.43;4.90;;;;;;;21.20;67.45;98327.72;4978560;28;20196;-64
2021/10/11 00:30:31;;;;;;;5.60;5.07;;;;;;;21.16;67.10;98332.63;4979783;28;20358;-65
2021/10/11 00:32:58;;;;;;;5.87;5.37;;;;;;;21.20;67.47;98330.28;4954865;28;20283;-65
2021/10/11 00:35:24;;;;;;;5.50;5.00;;;;;;;21.21;67.55;98331.16;4978219;28;20223;-65
2021/10/11 00:37:51;;;;;;;5.03;4.53;;;;;;;20.99;67.30;98290.16;4980593;28;20618;-63
2021/10/11 00:40:18;;;;;;;5.30;4.80;;;;;;;21.21;67.28;98334.59;4966966;28;20222;-63
2021/10/11 00:42:44;;;;;;;5.87;5.27;;;;;;;21.22;67.27;98332.91;4979218;28;20843;-64
2021/10/11 00:45:11;;;;;;;5.70;5.20;;;;;;;21.21;67.44;98347.38;4946789;28;20709;-64
2021/10/11 00:47:38;;;;;;;5.83;5.23;;;;;;;21.20;67.39;98343.06;4965744;28;20239;-64
2021/10/11 00:50:05;;;;;;;5.83;5.23;;;;;;;21.17;67.37;98336.97;4978256;28;20282;-64
2021/10/11 00:52:31;;;;;;;5.47;4.90;;;;;;;21.18;67.39;98339.59;4966218;28;20246;-64
2021/10/11 00:54:58;;;;;;;5.90;5.27;;;;;;;21.19;67.26;98343.00;4979726;28;20246;-65
2021/10/11 00:57:24;;;;;;;5.37;4.87;;;;;;;21.18;67.33;98336.13;4978983;28;20238;-65
2021/10/11 00:59:51;;;;;;;5.30;4.80;;;;;;;21.18;67.14;98342.13;4980908;28;20207;-64
2021/10/11 01:02:19;;;;;;;5.70;5.20;;;;;;;21.17;67.43;98340.38;4967168;28;20697;-64
2021/10/11 01:04:45;;;;;;;6.17;5.47;;;;;;;21.19;67.42;98336.22;4966863;28;20307;-63
2021/10/11 01:07:12;;;;;;;5.40;4.90;;;;;;;21.19;67.46;98331.09;4975022;28;20274;-66
2021/10/11 01:09:38;;;;;;;5.97;5.37;;;;;;;21.19;67.66;98327.66;4979241;28;20237;-64
2021/10/11 01:12:05;;;;;;;5.67;5.00;;;;;;;21.20;67.36;98330.28;4984750;28;20237;-65
2021/10/11 01:14:32;;;;;;;5.60;5.10;;;;;;;21.20;67.55;98324.31;4977385;28;20286;-63
2021/10/11 01:16:58;;;;;;;5.60;5.10;;;;;;;21.18;67.43;98320.81;4984973;28;20535;-64
2021/10/11 01:19:25;;;;;;;5.80;5.30;;;;;;;21.20;67.24;98327.72;4977475;28;20195;-64
2021/10/11 01:21:51;;;;;;;5.37;4.87;;;;;;;21.21;67.22;98323.50;4965969;28;20238;-64
2021/10/11 01:24:18;;;;;;;5.63;5.13;;;;;;;21.21;67.30;98318.38;4977124;28;20270;-64
2021/10/11 01:26:44;;;;;;;5.87;5.27;;;;;;;21.21;67.45;98320.94;4975378;28;20604;-64
2021/10/11 01:29:12;;;;;;;5.50;5.00;;;;;;;21.21;67.36;98316.72;4987616;28;20210;-65
2021/10/11 01:31:39;;;;;;;5.50;5.00;;;;;;;21.17;67.67;98308.84;4978892;28;20749;-64
2021/10/11 01:34:06;;;;;;;5.57;5.07;;;;;;;21.21;67.15;98309.03;4967736;28;20246;-64
2021/10/11 01:36:32;;;;;;;6.73;5.20;;;;;;;21.10;67.69;98297.47;4986370;28;20262;-64
2021/10/11 01:39:00;;;;;;;5.30;4.80;;;;;;;20.96;67.20;98259.34;4971381;28;20283;-64
2021/10/11 01:41:27;;;;;;;5.37;4.87;;;;;;;21.18;67.26;98301.25;4978454;28;20239;-63
2021/10/11 01:43:54;;;;;;;4.67;4.27;;;;;;;21.18;67.36;98308.91;4977881;28;20270;-64
2021/10/11 01:46:20;;;;;;;5.53;5.03;;;;;;;21.19;67.10;98307.19;4963283;28;20369;-65
2021/10/11 01:48:47;;;;;;;5.53;5.03;;;;;;;21.18;67.19;98301.25;4965442;28;20647;-64
2021/10/11 01:51:13;;;;;;;6.43;5.47;;;;;;;21.18;67.23;98298.69;4965837;28;20284;-64
2021/10/11 01:53:40;;;;;;;5.80;5.20;;;;;;;21.15;67.25;98290.00;4987520;28;20617;-64
2021/10/11 01:56:07;;;;;;;5.57;5.07;;;;;;;21.19;66.99;98296.97;4952983;28;20228;-66
2021/10/11 01:58:33;;;;;;;5.53;5.03;;;;;;;21.15;67.15;98290.00;4977146;28;20243;-64
2021/10/11 02:01:00;;;;;;;5.33;4.83;;;;;;;21.19;66.89;98292.75;4976380;28;20235;-65
2021/10/11 02:03:27;;;;;;;6.13;5.20;;;;;;;21.05;67.31;98265.72;4978281;28;20231;-64
2021/10/11 02:05:53;;;;;;;6.00;5.43;;;;;;;21.20;67.28;98293.63;4976824;28;20269;-65
2021/10/11 02:08:20;;;;;;;5.50;5.00;;;;;;;21.20;67.04;98285.97;4964868;28;20204;-65
2021/10/11 02:10:46;;;;;;;4.90;4.50;;;;;;;21.20;67.31;98285.97;4978010;28;20270;-64
2021/10/11 02:13:13;;;;;;;5.53;5.03;;;;;;;21.16;67.28;98286.63;4977307;28;20290;-64
2021/10/11 02:15:40;;;;;;;5.67;5.07;;;;;;;21.21;67.74;98290.25;4960574;28;20306;-64
2021/10/11 02:18:06;;;;;;;5.77;5.27;;;;;;;21.13;67.28;98276.28;4978882;28;20234;-64
2021/10/11 02:20:35;;;;;;;5.50;4.60;;;;;;;21.20;67.35;98296.19;4957075;28;20593;-66
2021/10/11 02:23:03;;;;;;;5.30;4.80;;;;;;;21.20;67.11;98286.81;4967968;28;20216;-64
2021/10/11 02:25:29;;;;;;;4.90;4.50;;;;;;;21.20;67.77;98288.53;4985551;28;20724;-64
2021/10/11 02:27:56;;;;;;;5.57;5.07;;;;;;;21.14;67.39;98273.78;4981136;28;20621;-64
2021/10/11 02:30:22;;;;;;;5.40;4.90;;;;;;;21.18;67.33;98285.91;4976015;28;20228;-64
2021/10/11 02:32:49;;;;;;;5.53;5.03;;;;;;;21.18;67.48;98290.13;4985934;28;20246;-66
2021/10/11 02:35:20;;;;;;;5.97;5.37;;;;;;;21.03;67.18;98269.03;4978707;28;20615;-64
2021/10/11 02:37:47;;;;;;;5.50;5.00;;;;;;;21.17;67.10;98291.78;4986847;28;20208;-64
2021/10/11 02:40:14;;;;;;;5.20;4.70;;;;;;;21.17;67.04;98283.28;4976178;28;20203;-64
2021/10/11 02:42:41;;;;;;;5.30;4.80;;;;;;;21.18;67.27;98285.00;4977876;28;20219;-64
2021/10/11 02:45:08;;;;;;;5.30;4.80;;;;;;;21.16;67.29;98279.84;4973930;28;20266;-63
2021/10/11 02:47:34;;;;;;;5.73;5.23;;;;;;;21.18;67.07;98285.00;4977933;28;20242;-64
2021/10/11 02:50:01;;;;;;;5.40;4.90;;;;;;;21.18;67.16;98283.34;4984315;28;20644;-64
2021/10/11 02:52:31;;;;;;;5.50;5.00;;;;;;;21.16;67.44;98284.06;4980878;28;20210;-64
2021/10/11 02:54:58;;;;;;;5.47;4.97;;;;;;;21.16;67.34;98284.06;4978629;28;20277;-64
2021/10/11 02:57:25;;;;;;;5.50;4.97;;;;;;;21.18;67.32;98296.13;4982340;28;20290;-65
2021/10/11 02:59:51;;;;;;;5.20;4.73;;;;;;;21.18;67.22;98296.13;4977687;28;20222;-64
2021/10/11 03:02:18;;;;;;;5.50;5.00;;;;;;;21.15;67.21;98290.88;4957420;28;20223;-65
2021/10/11 03:04:45;;;;;;;5.30;4.80;;;;;;;21.14;67.52;98291.66;4969497;28;20275;-66
2021/10/11 03:07:12;;;;;;;5.57;4.97;;;;;;;21.17;67.34;98291.78;4966710;28;20248;-65
2021/10/11 03:09:39;;;;;;;5.30;4.80;;;;;;;21.15;66.78;98277.22;4967420;28;20231;-64
2021/10/11 03:12:05;;;;;;;5.90;5.30;;;;;;;21.19;67.42;98281.63;4968843;28;20237;-65
2021/10/11 03:14:32;;;;;;;4.87;4.37;;;;;;;21.19;67.13;98295.31;4982189;28;20669;-64
2021/10/11 03:16:58;;;;;;;4.40;4.00;;;;;;;21.18;67.29;98285.91;4979140;28;20285;-66
2021/10/11 03:19:25;;;;;;;5.43;4.77;;;;;;;21.18;67.59;98283.34;4984202;28;20630;-65
2021/10/11 03:21:52;;;;;;;5.67;5.10;;;;;;;21.18;67.28;98279.91;4982908;28;20218;-65
2021/10/11 03:24:19;;;;;;;5.77;5.10;;;;;;;21.17;67.03;98289.25;4979053;28;20251;-64
2021/10/11 03:26:45;;;;;;;4.87;4.47;;;;;;;21.17;67.23;98291.78;4963087;28;20219;-65
2021/10/11 03:29:12;;;;;;;5.50;5.00;;;;;;;20.74;67.45;98219.19;4982459;28;20206;-64
2021/10/11 03:31:38;;;;;;;5.57;5.07;;;;;;;21.17;67.40;98284.13;4985411;28;20728;-65
2021/10/11 03:34:06;;;;;;;5.00;4.60;;;;;;;21.18;66.92;98290.13;4978196;28;20235;-64
2021/10/11 03:36:33;;;;;;;5.10;4.70;;;;;;;21.13;67.23;98277.16;4980181;28;20224;-65
2021/10/11 03:39:00;;;;;;;5.50;5.00;;;;;;;20.99;67.37;98257.78;4973380;28;20630;-65
2021/10/11 03:41:27;;;;;;;5.83;5.27;;;;;;;21.17;66.94;98291.78;4941834;28;20246;-64
2021/10/11 03:43:53;;;;;;;5.60;5.07;;;;;;;21.10;66.92;98284.69;4980322;28;20219;-64
2021/10/11 03:46:20;;;;;;;5.33;4.83;;;;;;;21.15;67.17;98300.22;4952703;28;20254;-65
2021/10/11 03:48:46;;;;;;;5.17;4.77;;;;;;;21.19;67.31;98304.66;4963327;28;20238;-64
2021/10/11 03:51:13;;;;;;;5.33;4.83;;;;;;;21.18;67.01;98310.56;4979534;28;20259;-64
2021/10/11 03:53:39;;;;;;;6.57;4.87;;;;;;;21.19;67.16;98307.19;4983742;28;20231;-64
2021/10/11 03:56:06;;;;;;;5.70;5.20;;;;;;;21.19;67.16;98312.31;4982292;28;20247;-64
2021/10/11 03:58:33;;;;;;;5.27;4.77;;;;;;;21.18;66.97;98314.03;4985573;28;20226;-64
2021/10/11 04:00:59;;;;;;;5.20;4.73;;;;;;;21.19;67.41;98313.19;4984273;28;20223;-64
2021/10/11 04:03:26;;;;;;;4.87;4.47;;;;;;;21.18;67.40;98314.03;4977721;28;20666;-64
2021/10/11 04:05:52;;;;;;;4.80;4.40;;;;;;;21.18;67.18;98308.91;4981688;28;20219;-64
2021/10/11 04:08:21;;;;;;;5.07;4.57;;;;;;;21.16;66.87;98302.84;4975930;28;20203;-64
2021/10/11 04:13:19;;;;;;;5.37;4.87;;;;;;;20.94;67.37;98261.81;4974073;28;20247;-63
2021/10/11 04:15:48;;;;;;;5.40;4.90;;;;;;;21.02;67.01;98277.50;4967799;28;20247;-64
2021/10/11 04:18:17;;;;;;;4.80;4.40;;;;;;;21.16;67.08;98305.41;4948487;28;20239;-65
2021/10/11 04:20:44;;;;;;;5.30;4.80;;;;;;;21.12;67.28;98298.41;4968082;28;20293;-62
2021/10/11 04:23:11;;;;;;;4.83;4.43;;;;;;;21.16;67.10;98307.06;4956071;28;20314;-63
2021/10/11 04:25:37;;;;;;;4.93;4.53;;;;;;;21.13;67.13;98286.50;4967878;28;20686;-62
2021/10/11 04:28:04;;;;;;;5.93;4.70;;;;;;;21.17;67.28;98296.91;4966037;28;20224;-63
2021/10/11 04:30:31;;;;;;;5.13;4.63;;;;;;;21.17;67.13;98301.19;4963504;28;20205;-62
2021/10/11 04:32:58;;;;;;;5.33;4.83;;;;;;;21.18;67.32;98290.13;4971507;28;20234;-63
2021/10/11 04:35:25;;;;;;;5.40;4.90;;;;;;;21.17;67.01;98291.78;4956866;28;20354;-61
2021/10/11 04:37:52;;;;;;;4.97;4.50;;;;;;;21.15;67.29;98278.09;4949510;28;20552;-65
2021/10/11 04:40:19;;;;;;;5.10;4.60;;;;;;;21.17;67.31;98289.25;4946177;28;20562;-64
2021/10/11 04:42:45;;;;;;;5.20;4.80;;;;;;;21.19;67.09;98291.88;4964910;28;20228;-63
2021/10/11 04:45:12;;;;;;;5.00;4.60;;;;;;;21.19;67.12;98299.53;4965009;28;20279;-64
2021/10/11 04:47:39;;;;;;;4.80;4.40;;;;;;;21.15;67.14;98296.00;4966314;28;20204;-69
2021/10/11 04:50:06;;;;;;;5.47;4.97;;;;;;;21.19;67.39;98291.88;4972097;28;20590;-64
2021/10/11 04:52:32;;;;;;;7.33;4.83;;;;;;;21.19;67.65;98295.31;4980664;28;20208;-64
2021/10/11 04:54:59;;;;;;;6.67;5.17;;;;;;;21.18;66.11;98306.34;4975649;28;20210;-65
2021/10/11 04:57:25;;;;;;;5.33;4.83;;;;;;;21.17;65.07;98301.19;4965195;28;20216;-64
2021/10/11 04:59:52;;;;;;;6.30;4.97;;;;;;;21.17;64.39;98308.84;4986741;28;20677;-64
2021/10/11 05:02:18;;;;;;;5.90;5.30;;;;;;;21.17;64.17;98314.81;4977834;28;20732;-64
2021/10/11 05:04:45;;;;;;;6.30;5.70;;;;;;;21.15;64.43;98316.44;4981132;28;20255;-65
2021/10/11 05:07:12;;;;;;;5.70;5.17;;;;;;;21.17;64.98;98322.47;4976469;28;20295;-64
2021/10/11 05:09:38;;;;;;;9.07;7.70;;;;;;;21.17;62.30;98313.94;4978443;28;20234;-64
2021/10/11 05:12:05;;;;;;;7.87;7.07;;;;;;;21.11;57.62;98303.47;4983745;28;20696;-64
2021/10/11 05:14:32;;;;;;;8.53;7.70;;;;;;;21.14;55.24;98316.38;4970466;28;20572;-63
2021/10/11 05:16:58;;;;;;;9.10;8.20;;;;;;;21.12;52.79;98312.88;4979038;28;20204;-65
2021/10/11 05:19:26;;;;;;;10.13;8.77;;;;;;;21.10;51.36;98322.16;4975712;28;20265;-64
2021/10/11 05:21:53;;;;;;;9.47;8.50;;;;;;;21.07;50.12;98304.13;4977391;28;20234;-64
2021/10/11 05:24:23;;;;;;;10.40;9.33;;;;;;;21.04;49.18;98291.22;4969140;28;20310;-64
2021/10/11 05:26:53;;;;;;;10.43;9.33;;;;;;;21.02;48.36;98298.81;4980749;28;20294;-62
2021/10/11 05:29:20;;;;;;;10.90;9.77;;;;;;;21.00;47.93;98300.44;4959086;28;20200;-63
2021/10/11 05:31:46;;;;;;;11.80;9.73;;;;;;;20.96;47.80;98298.53;4976521;28;20242;-64
2021/10/11 05:34:13;;;;;;;10.70;9.13;;;;;;;20.93;48.53;98287.31;4959013;28;20364;-63
2021/10/11 05:36:40;;;;;;;14.43;9.60;;;;;;;20.83;48.97;98268.13;4958123;28;20258;-64
2021/10/11 05:39:07;;;;;;;10.97;8.97;;;;;;;20.97;48.99;98286.66;4961238;28;20613;-64
2021/10/11 05:41:33;;;;;;;10.50;9.30;;;;;;;20.94;49.93;98283.94;4980601;28;20634;-64
2021/10/11 05:44:00;;;;;;;10.27;9.27;;;;;;;20.95;50.99;98291.69;4966186;28;20245;-64
2021/10/11 05:46:26;;;;;;;10.07;9.07;;;;;;;20.94;51.59;98291.59;4987813;28;20282;-63
2021/10/11 05:49:09;;;;;;;10.00;9.00;;;;;;;20.94;52.36;98294.16;4981093;28;20205;-64
2021/10/11 05:51:36;;;;;;;10.57;9.13;;;;;;;20.90;52.51;98288.03;4974135;28;20239;-63
2021/10/11 05:54:02;;;;;;;13.10;8.30;;;;;;;20.93;52.60;98288.16;4985293;28;20689;-65
2021/10/11 05:56:29;;;;;;;9.43;8.47;;;;;;;20.94;53.58;98291.59;4974342;28;20258;-64
2021/10/11 05:58:55;;;;;;;9.00;8.20;;;;;;;20.94;53.95;98300.16;4974315;28;20246;-64
2021/10/11 06:01:22;;;;;;;10.57;7.87;;;;;;;20.89;54.38;98293.06;4981042;28;20231;-64
2021/10/11 06:03:48;;;;;;;8.70;7.90;;;;;;;20.96;55.20;98302.81;4946534;28;20298;-64
2021/10/11 06:06:15;;;;;;;12.33;8.37;;;;;;;20.96;55.65;98295.97;4976239;28;20645;-64
2021/10/11 06:08:42;;;;;;;8.67;7.73;;;;;;;20.82;55.67;98266.41;4971118;28;20250;-65
2021/10/11 06:11:08;;;;;;;9.23;8.33;;;;;;;20.98;55.76;98290.94;4936834;28;20227;-64
2021/10/11 06:13:35;;;;;;;8.70;7.80;;;;;;;20.98;56.23;98298.59;4983106;28;20234;-65
2021/10/11 06:16:01;;;;;;;9.27;8.27;;;;;;;20.57;56.72;98216.72;4974460;28;20684;-64
2021/10/11 06:18:28;;;;;;;10.20;8.20;;;;;;;20.86;52.03;98267.38;4958095;28;20294;-64
2021/10/11 06:20:55;;;;;;;10.63;9.43;;;;;;;20.93;51.18;98277.94;4932717;28;20286;-63
2021/10/11 06:23:22;;;;;;;11.33;8.10;;;;;;;20.95;51.60;98278.91;4964250;28;20299;-62
2021/10/11 06:25:48;;;;;;;8.97;8.07;;;;;;;20.96;51.91;98280.66;4956313;28;20223;-64
2021/10/11 06:28:18;;;;;;;8.50;7.60;;;;;;;20.81;52.92;98253.56;4957237;28;20629;-64
2021/10/11 06:30:45;;;;;;;10.37;8.20;;;;;;;20.94;53.66;98277.16;4955456;28;20748;-64
2021/10/11 06:33:13;;;;;;;8.00;7.30;;;;;;;20.97;54.12;98286.66;4949036;28;20241;-64
2021/10/11 06:35:40;;;;;;;9.07;7.40;;;;;;;20.97;54.37;98289.22;4972364;28;20215;-64
2021/10/11 06:38:06;;;;;;;8.90;7.37;;;;;;;20.84;55.03;98286.91;4970724;28;20235;-64
2021/10/11 06:40:34;;;;;;;9.23;7.70;;;;;;;20.97;55.04;98310.53;4972457;28;20207;-65
2021/10/11 06:43:00;;;;;;;11.10;7.90;;;;;;;20.97;55.27;98313.09;4971271;28;20668;-64
2021/10/11 06:45:27;;;;;;;8.30;7.33;;;;;;;20.93;55.64;98306.03;4956230;28;20352;-63
2021/10/11 06:47:53;;;;;;;8.37;7.47;;;;;;;20.89;55.99;98296.50;4958962;28;20278;-64
2021/10/11 06:50:20;;;;;;;8.17;7.37;;;;;;;21.00;56.23;98322.56;4953101;28;20620;-65
2021/10/11 06:52:47;;;;;;;8.37;7.43;;;;;;;20.98;56.23;98329.28;4972040;28;20235;-64
2021/10/11 06:55:13;;;;;;;8.23;7.43;;;;;;;20.98;56.72;98335.28;4971377;28;20223;-64
2021/10/11 06:57:40;;;;;;;8.40;7.47;;;;;;;20.97;57.21;98325.88;4972096;28;20207;-63
2021/10/11 07:00:07;;;;;;;7.60;6.87;;;;;;;21.01;57.23;98345.63;4954487;28;20306;-65
2021/10/11 07:02:33;;;;;;;7.53;6.73;;;;;;;20.90;57.18;98323.78;4970405;28;20254;-64
2021/10/11 07:05:08;;;;;;;8.97;7.37;;;;;;;21.02;58.04;98349.91;4952417;28;20223;-63
2021/10/11 07:07:35;;;;;;;9.20;6.97;;;;;;;21.04;57.84;98363.66;4970747;28;20556;-64
2021/10/11 07:10:02;;;;;;;8.30;7.10;;;;;;;20.99;58.06;98349.78;4972755;28;20247;-63
2021/10/11 07:12:29;;;;;;;7.50;6.80;;;;;;;20.49;58.17;98264.88;4953768;28;20307;-65
2021/10/11 07:15:16;;;;;;;7.33;6.60;;;;;;;21.06;58.33;98377.38;4956782;28;20225;-64
2021/10/11 07:17:42;;;;;;;6.57;5.97;;;;;;;21.05;58.70;98379.88;4972190;28;20247;-64
2021/10/11 07:20:09;;;;;;;7.27;6.57;;;;;;;21.05;59.07;98378.16;4977448;28;20629;-64
2021/10/11 07:22:36;;;;;;;7.07;6.37;;;;;;;21.06;59.15;98379.94;4972411;28;20231;-65
2021/10/11 07:25:03;;;;;;;7.30;6.53;;;;;;;21.06;58.94;98374.84;4953071;28;20301;-64
2021/10/11 07:27:30;;;;;;;7.23;6.53;;;;;;;20.57;58.82;98283.13;4976344;28;20299;-63
2021/10/11 07:29:56;;;;;;;8.03;7.23;;;;;;;21.06;59.07;98376.50;4962461;28;20246;-65
2021/10/11 07:32:23;;;;;;;7.47;6.67;;;;;;;21.04;59.39;98376.44;4975436;28;20234;-64
2021/10/11 07:34:49;;;;;;;7.90;6.97;;;;;;;21.07;59.23;98378.25;4956223;28;20258;-63
2021/10/11 07:37:16;;;;;;;7.17;6.50;;;;;;;21.00;59.59;98368.56;4961135;28;20673;-63
2021/10/11 07:39:44;;;;;;;7.70;6.90;;;;;;;20.94;59.42;98360.59;4960730;28;20651;-64
2021/10/11 07:42:11;;;;;;;7.20;6.50;;;;;;;21.08;59.52;98373.19;4957692;28;20204;-63
2021/10/11 07:44:37;;;;;;;6.77;6.07;;;;;;;21.08;59.86;98367.22;4952502;28;20804;-64
2021/10/11 07:47:05;;;;;;;6.93;6.33;;;;;;;21.10;60.02;98375.81;4969655;28;20283;-64
2021/10/11 07:49:31;;;;;;;6.37;5.77;;;;;;;21.10;60.20;98380.94;4971428;28;20746;-65
2021/10/11 07:51:58;;;;;;;7.27;6.13;;;;;;;21.05;60.45;98365.41;4971871;28;20231;-64
2021/10/11 07:54:27;;;;;;;6.93;6.27;;;;;;;21.10;60.54;98361.38;4956146;28;20224;-63
2021/10/11 07:56:55;;;;;;;6.70;6.10;;;;;;;21.12;60.47;98361.44;4970317;28;20257;-65
2021/10/11 07:59:21;;;;;;;6.47;5.87;;;;;;;21.06;60.90;98356.06;4958445;28;20274;-64
2021/10/11 08:01:48;;;;;;;6.70;6.10;;;;;;;20.96;60.79;98331.75;4970199;28;20200;-64
2021/10/11 08:04:15;;;;;;;6.83;6.23;;;;;;;21.07;60.94;98357.78;4938901;28;20228;-64
2021/10/11 08:06:42;;;;;;;6.20;5.60;;;;;;;21.12;61.39;98366.56;4973051;28;20227;-62
2021/10/11 08:09:10;;;;;;;5.97;5.47;;;;;;;21.07;61.10;98357.78;4974414;28;20736;-65
2021/10/11 08:11:39;;;;;;;6.97;6.30;;;;;;;21.12;60.90;98364.88;4957479;28;20204;-64
2021/10/11 08:14:05;;;;;;;12.17;10.87;;;;;;;21.07;57.53;98342.47;4974885;28;20270;-63
2021/10/11 08:16:32;;;;;;;15.47;12.60;;;;;;;21.07;55.66;98347.56;4973513;28;20228;-63
2021/10/11 08:18:59;;;;;;;21.53;15.00;;;;;;;21.02;53.97;98355.03;4974714;28;20753;-64
2021/10/11 08:21:26;;;;;;;20.17;15.80;;;;;;;21.04;52.93;98357.66;4953993;28;20203;-65
2021/10/11 08:23:53;;;;;;;21.67;16.53;;;;;;;21.04;53.10;98365.31;4962711;28;20293;-63
2021/10/11 08:26:21;;;;;;;17.33;14.60;;;;;;;20.87;53.06;98330.47;4970563;28;20271;-65
2021/10/11 08:28:47;;;;;;;21.23;15.57;;;;;;;21.03;53.74;98348.25;4963318;28;20199;-63
2021/10/11 08:31:14;;;;;;;26.03;15.83;;;;;;;21.01;54.12;98345.63;4970019;28;20304;-65
2021/10/11 08:33:41;;;;;;;18.40;15.30;;;;;;;21.02;54.49;98338.84;4974966;28;20199;-63
2021/10/11 08:36:07;;;;;;;19.73;15.33;;;;;;;21.03;55.21;98355.91;4958510;28;20222;-64
2021/10/11 08:38:34;;;;;;;23.00;16.00;;;;;;;21.02;54.38;98351.63;4974838;28;20212;-64
2021/10/11 08:41:00;;;;;;;21.20;15.73;;;;;;;20.96;54.66;98352.22;4974298;28;20199;-64
2021/10/11 08:43:27;;;;;;;23.97;17.53;;;;;;;21.01;55.39;98360.06;4948690;28;20673;-63
2021/10/11 08:45:54;;;;;;;22.97;16.23;;;;;;;21.02;55.21;98359.28;4975003;28;20273;-64
2021/10/11 08:48:20;;;;;;;19.03;15.13;;;;;;;21.02;55.74;98349.06;4974630;28;20307;-63
2021/10/11 08:50:47;;;;;;;18.53;14.90;;;;;;;21.01;56.05;98360.97;4974995;28;20404;-63
2021/10/11 08:53:14;;;;;;;20.80;15.20;;;;;;;21.03;56.41;98373.81;4973965;28;20677;-65
2021/10/11 08:55:41;;;;;;;18.57;14.37;;;;;;;21.02;56.89;98365.25;4981388;28;20278;-63
2021/10/11 08:58:08;;;;;;;16.80;14.10;;;;;;;21.02;56.87;98362.69;4968319;28;20245;-65
2021/10/11 09:00:37;;;;;;;17.40;14.17;;;;;;;21.02;56.99;98370.38;4973805;28;20223;-61
2021/10/11 09:03:04;;;;;;;17.90;13.47;;;;;;;21.00;57.17;98356.66;4948077;28;20203;-64
2021/10/11 09:05:40;;;;;;;14.93;12.67;;;;;;;21.03;57.12;98355.91;4934588;28;20223;-63
2021/10/11 09:08:15;;;;;;;18.40;13.87;;;;;;;20.97;57.27;98347.97;4946650;28;20226;-64
2021/10/11 09:10:55;;;;;;;16.27;13.47;;;;;;;21.00;57.56;98349.00;4961810;28;20199;-64
2021/10/11 09:13:37;;;;;;;18.33;14.13;;;;;;;21.01;57.83;98349.84;4958863;28;20669;-63
2021/10/11 09:16:09;;;;;;;16.17;13.30;;;;;;;21.04;58.06;98352.53;4946517;28;20215;-63
2021/10/11 09:18:38;;;;;;;17.40;13.57;;;;;;;20.91;58.23;98315.34;4974007;28;20295;-63
2021/10/11 09:21:05;;;;;;;17.20;13.47;;;;;;;21.06;58.40;98340.72;4963185;28;20238;-64
2021/10/11 09:23:32;;;;;;;16.30;12.73;;;;;;;21.06;58.60;98343.28;4974631;28;20282;-64
2021/10/11 09:25:59;;;;;;;16.43;12.93;;;;;;;21.07;58.77;98345.00;4977248;28;20762;-63
2021/10/11 09:28:27;;;;;;;15.43;12.63;;;;;;;21.07;58.85;98337.34;4973748;28;20267;-64
2021/10/11 09:31:09;;;;;;;15.50;12.17;;;;;;;21.06;59.15;98328.81;4969099;28;20578;-64
2021/10/11 09:33:35;;;;;;;14.50;11.60;;;;;;;21.08;59.29;98339.13;4944932;28;20200;-63
2021/10/11 09:36:02;;;;;;;14.83;12.20;;;;;;;21.07;59.44;98337.34;4964415;28;20270;-65
2021/10/11 09:38:29;;;;;;;16.03;12.30;;;;;;;21.05;59.50;98332.16;4972458;28;20674;-63
2021/10/11 09:40:57;;;;;;;15.13;11.30;;;;;;;21.08;59.76;98334.00;4978893;28;20196;-63
2021/10/11 09:43:31;;;;;;;13.23;11.30;;;;;;;21.09;59.94;98334.06;4968850;28;20281;-64
2021/10/11 09:46:10;;;;;;;12.60;11.00;;;;;;;21.07;59.65;98320.34;4956954;28;20231;-63
2021/10/11 09:48:52;;;;;;;12.47;10.87;;;;;;;21.07;59.97;98319.44;4963994;28;20298;-63
2021/10/11 09:51:21;;;;;;;13.43;11.50;;;;;;;21.10;60.06;98324.69;4955487;28;20231;-63
2021/10/11 09:53:49;;;;;;;13.10;10.60;;;;;;;21.10;59.91;98307.69;4963399;28;20207;-64
2021/10/11 09:56:15;;;;;;;15.27;11.10;;;;;;;21.11;60.74;98303.47;4953004;28;20258;-63
2021/10/11 09:58:42;;;;;;;14.67;12.13;;;;;;;21.05;60.08;98296.38;4947192;28;20322;-64
2021/10/11 10:01:09;;;;;;;12.47;11.17;;;;;;;21.10;59.98;98297.47;4953809;28;20690;-64
2021/10/11 10:03:36;;;;;;;13.43;11.17;;;;;;;21.10;60.78;98297.47;4965375;28;20208;-64
2021/10/11 10:06:05;;;;;;;11.73;10.50;;;;;;;21.08;60.45;98300.78;4979012;28;20274;-64
2021/10/11 10:08:32;;;;;;;12.50;10.60;;;;;;;21.08;60.45;98299.06;4942847;28;20259;-64
2021/10/11 10:10:59;;;;;;;12.50;10.50;;;;;;;21.12;60.67;98302.66;4930174;28;20203;-64
2021/10/11 10:13:26;;;;;;;13.30;10.23;;;;;;;21.03;60.73;98279.25;4958518;28;20295;-63
2021/10/11 10:15:56;;;;;;;12.77;10.97;;;;;;;21.13;60.97;98291.59;4946056;28;20253;-63
2021/10/11 10:18:23;;;;;;;13.17;10.53;;;;;;;21.13;60.78;98296.72;4943536;28;20310;-64
2021/10/11 10:20:50;;;;;;;11.50;9.80;;;;;;;21.12;60.69;98285.63;4967581;28;20196;-63
2021/10/11 10:23:29;;;;;;;13.50;10.40;;;;;;;21.13;61.14;98282.25;4961706;28;20279;-63
2021/10/11 10:25:56;;;;;;;12.43;9.83;;;;;;;20.48;60.88;98171.22;4958080;28;20669;-64
2021/10/11 10:28:24;;;;;;;12.03;10.40;;;;;;;21.13;61.31;98284.81;4939422;28;20728;-63
2021/10/11 10:30:59;;;;;;;13.10;10.33;;;;;;;21.03;61.11;98256.25;4958331;28;21023;-64
2021/10/11 10:33:42;;;;;;;11.53;9.60;;;;;;;21.13;61.27;98264.38;4959311;28;20210;-64
2021/10/11 10:36:22;;;;;;;13.03;9.67;;;;;;;21.13;61.32;98256.69;4963343;28;20643;-63
2021/10/11 10:39:00;;;;;;;11.73;9.30;;;;;;;21.13;61.22;98266.03;4973957;28;20261;-63
2021/10/11 10:41:27;;;;;;;12.67;9.20;;;;;;;20.97;61.14;98225.31;4972253;28;20234;-63
2021/10/11 10:43:54;;;;;;;12.43;10.10;;;;;;;21.04;61.27;98243.53;4964596;28;20633;-63
2021/10/11 10:46:21;;;;;;;10.27;8.93;;;;;;;21.12;61.56;98251.53;4945847;28;20696;-62
2021/10/11 10:48:49;;;;;;;12.80;10.13;;;;;;;21.13;61.59;98248.16;4972776;28;20254;-62
2021/10/11 10:51:17;;;;;;;10.17;9.17;;;;;;;21.12;61.61;98241.31;4972715;28;20259;-64
2021/10/11 10:54:09;;;;;;;11.67;9.63;;;;;;;21.12;61.61;98243.84;4973457;28;20234;-62
2021/10/11 10:56:36;;;;;;;10.83;9.47;;;;;;;21.08;61.63;98230.06;4959610;28;20286;-61
2021/10/11 10:59:03;;;;;;;10.40;9.30;;;;;;;21.07;61.75;98228.31;4958566;28;20203;-62
2021/10/11 11:01:30;;;;;;;10.00;8.90;;;;;;;21.12;61.79;98231.06;4954707;28;20235;-64
2021/10/11 11:03:57;;;;;;;10.87;9.27;;;;;;;21.10;61.62;98223.34;4967903;28;20294;-63
2021/10/11 11:06:28;;;;;;;11.07;9.17;;;;;;;20.58;62.00;98129.09;4931054;28;20681;-63
2021/10/11 11:08:56;;;;;;;10.03;9.03;;;;;;;21.13;61.92;98228.59;4955196;28;20223;-63
2021/10/11 11:11:23;;;;;;;10.83;9.70;;;;;;;20.59;62.07;98129.16;4948367;28;20666;-63
2021/10/11 11:13:53;;;;;;;10.70;8.90;;;;;;;21.14;62.04;98220.09;4941152;28;20711;-63
2021/10/11 11:16:27;;;;;;;9.80;8.80;;;;;;;21.14;62.07;98214.97;4968649;28;20262;-63
2021/10/11 11:18:54;;;;;;;9.47;8.47;;;;;;;21.12;62.10;98200.41;4957582;28;20202;-64
2021/10/11 11:21:21;;;;;;;8.70;7.83;;;;;;;21.15;62.52;98213.31;4969192;28;20649;-61
2021/10/11 11:23:48;;;;;;;9.83;8.77;;;;;;;21.12;62.31;98200.41;4970810;28;20725;-63
2021/10/11 11:26:16;;;;;;;10.23;8.97;;;;;;;21.14;62.08;98204.75;4958733;28;20223;-62
2021/10/11 11:28:42;;;;;;;9.07;8.17;;;;;;;21.13;62.18;98203.03;4957794;28;20470;-63
2021/10/11 11:31:10;;;;;;;9.37;8.33;;;;;;;21.13;62.01;98195.34;4958241;28;20318;-63
2021/10/11 11:33:48;;;;;;;9.73;8.43;;;;;;;21.12;62.01;98208.97;4960292;28;20211;-63